createdAt,value
2019-02-21T00:00:23.956Z,13.55
2019-02-21T00:01:29.863Z,12.93
2019-02-21T00:02:36.090Z,12.58
2019-02-21T00:03:42.216Z,13.15
2019-02-21T00:04:49.874Z,12.88
2019-02-21T00:05:56.092Z,12.80
2019-02-21T00:07:02.265Z,13.45
2019-02-21T00:08:08.376Z,13.20
2019-02-21T00:09:14.529Z,13.48
2019-02-21T00:10:21.166Z,13.70
2019-02-21T00:11:27.477Z,14.47
2019-02-21T00:12:33.817Z,13.53
2019-02-21T00:13:40.051Z,14.60
2019-02-21T00:14:45.837Z,13.65
2019-02-21T00:15:52.066Z,14.98
2019-02-21T00:16:58.907Z,14.35
2019-02-21T00:18:05.146Z,13.28
2019-02-21T00:19:11.320Z,13.35
2019-02-21T00:20:17.649Z,13.98
2019-02-21T00:21:23.805Z,14.68
2019-02-21T00:22:30.137Z,13.22
2019-02-21T00:23:36.306Z,14.70
2019-02-21T00:24:42.453Z,14.68
2019-02-21T00:25:48.603Z,15.53
2019-02-21T00:26:54.637Z,14.45
2019-02-21T00:28:01.055Z,13.80
2019-02-21T00:29:07.325Z,14.03
2019-02-21T00:30:13.596Z,14.55
2019-02-21T00:31:20.106Z,14.80
2019-02-21T00:32:26.338Z,14.63
2019-02-21T00:33:32.505Z,14.38
2019-02-21T00:34:38.536Z,15.20
2019-02-21T00:35:44.813Z,15.00
2019-02-21T00:36:50.952Z,15.18
2019-02-21T00:37:57.165Z,14.28
2019-02-21T00:39:04.425Z,15.55
2019-02-21T00:40:11.984Z,15.18
2019-02-21T00:41:18.147Z,15.45
2019-02-21T00:42:24.272Z,15.13
2019-02-21T00:43:30.450Z,15.68
2019-02-21T00:44:36.565Z,15.80
2019-02-21T00:45:42.754Z,15.53
2019-02-21T00:46:48.885Z,14.33
2019-02-21T00:47:55.014Z,15.72
2019-02-21T00:49:01.219Z,15.93
2019-02-21T00:50:07.404Z,16.27
2019-02-21T00:51:13.767Z,15.90
2019-02-21T00:52:19.802Z,16.07
2019-02-21T00:53:26.051Z,15.75
2019-02-21T00:54:31.837Z,16.55
2019-02-21T00:55:38.187Z,15.85
2019-02-21T00:56:45.118Z,14.65
2019-02-21T00:57:51.369Z,15.15
2019-02-21T00:58:57.739Z,14.65
2019-02-21T01:00:03.925Z,16.05
2019-02-21T01:01:11.285Z,16.35
2019-02-21T01:02:17.546Z,14.93
2019-02-21T01:03:23.758Z,14.60
2019-02-21T01:04:29.914Z,15.28
2019-02-21T01:05:36.078Z,15.53
2019-02-21T01:06:42.391Z,15.03
2019-02-21T01:07:48.672Z,14.98
2019-02-21T01:08:54.779Z,14.75
2019-02-21T01:10:01.698Z,14.58
2019-02-21T01:11:08.458Z,15.58
2019-02-21T01:12:14.641Z,15.38
2019-02-21T01:13:21.408Z,14.35
2019-02-21T01:14:28.346Z,14.83
2019-02-21T01:15:34.511Z,16.23
2019-02-21T01:16:40.667Z,15.10
2019-02-21T01:17:47.946Z,14.68
2019-02-21T01:18:54.228Z,15.43
2019-02-21T01:20:00.450Z,14.95
2019-02-21T01:21:07.687Z,14.93
2019-02-21T01:22:13.923Z,14.90
2019-02-21T01:23:20.156Z,15.48
2019-02-21T01:24:26.386Z,15.18
2019-02-21T01:25:32.465Z,15.23
2019-02-21T01:26:38.880Z,16.15
2019-02-21T01:27:45.124Z,16.27
2019-02-21T01:28:51.379Z,15.68
2019-02-21T01:29:57.248Z,15.38
2019-02-21T01:31:03.725Z,16.52
2019-02-21T01:32:10.031Z,16.97
2019-02-21T01:33:16.281Z,15.20
2019-02-21T01:34:22.437Z,16.07
2019-02-21T01:35:29.554Z,15.45
2019-02-21T01:36:35.568Z,16.60
2019-02-21T01:37:41.854Z,15.23
2019-02-21T01:38:48.148Z,16.90
2019-02-21T01:39:54.367Z,15.23
2019-02-21T01:41:00.429Z,15.25
2019-02-21T01:42:06.591Z,14.93
2019-02-21T01:43:12.256Z,16.12
2019-02-21T01:44:18.506Z,15.88
2019-02-21T01:45:24.697Z,14.98
2019-02-21T01:46:30.970Z,15.88
2019-02-21T01:47:37.374Z,15.90
2019-02-21T01:48:43.442Z,16.52
2019-02-21T01:49:49.747Z,15.05
2019-02-21T01:50:55.758Z,15.28
2019-02-21T01:52:01.809Z,15.85
2019-02-21T01:53:08.186Z,16.70
2019-02-21T01:54:14.363Z,16.07
2019-02-21T01:55:20.550Z,14.87
2019-02-21T01:56:26.851Z,14.95
2019-02-21T01:57:33.009Z,15.55
2019-02-21T01:58:39.266Z,15.40
2019-02-21T01:59:45.322Z,15.20
2019-02-21T02:00:51.931Z,14.63
2019-02-21T02:01:58.076Z,15.72
2019-02-21T02:03:04.523Z,15.68
2019-02-21T02:04:10.802Z,15.20
2019-02-21T02:05:17.035Z,15.38
2019-02-21T02:06:23.414Z,15.65
2019-02-21T02:07:29.655Z,15.28
2019-02-21T02:08:37.150Z,15.63
2019-02-21T02:09:43.222Z,15.10
2019-02-21T02:10:50.904Z,16.73
2019-02-21T02:11:56.978Z,15.20
2019-02-21T02:13:03.273Z,15.25
2019-02-21T02:14:09.505Z,15.08
2019-02-21T02:15:15.803Z,15.25
2019-02-21T02:16:22.055Z,15.20
2019-02-21T02:17:28.277Z,14.47
2019-02-21T02:18:34.438Z,15.88
2019-02-21T02:19:40.615Z,15.48
2019-02-21T02:20:46.681Z,15.88
2019-02-21T02:21:52.516Z,15.53
2019-02-21T02:22:58.797Z,15.40
2019-02-21T02:24:04.816Z,16.02
2019-02-21T02:25:11.074Z,15.85
2019-02-21T02:26:17.258Z,15.25
2019-02-21T02:27:23.547Z,15.68
2019-02-21T02:28:29.685Z,16.42
2019-02-21T02:29:35.893Z,16.70
2019-02-21T02:30:41.995Z,15.40
2019-02-21T02:31:48.833Z,16.40
2019-02-21T02:32:55.086Z,15.25
2019-02-21T02:34:00.776Z,15.20
2019-02-21T02:35:07.044Z,15.98
2019-02-21T02:36:13.179Z,15.95
2019-02-21T02:37:19.287Z,16.87
2019-02-21T02:38:25.657Z,16.90
2019-02-21T02:39:31.873Z,16.32
2019-02-21T02:40:38.035Z,17.30
2019-02-21T02:41:44.131Z,17.02
2019-02-21T02:42:50.171Z,17.37
2019-02-21T02:43:56.420Z,16.82
2019-02-21T02:45:02.777Z,17.17
2019-02-21T02:46:09.756Z,15.43
2019-02-21T02:47:16.059Z,16.93
2019-02-21T02:48:22.126Z,17.20
2019-02-21T02:49:28.224Z,17.50
2019-02-21T02:50:34.604Z,16.87
2019-02-21T02:51:40.775Z,17.42
2019-02-21T02:52:47.461Z,18.32
2019-02-21T02:53:54.866Z,17.50
2019-02-21T02:55:01.083Z,16.05
2019-02-21T02:56:07.374Z,16.55
2019-02-21T02:57:14.665Z,16.48
2019-02-21T02:58:20.874Z,16.30
2019-02-21T02:59:40.050Z,16.35
2019-02-21T03:00:34.949Z,16.20
2019-02-21T03:01:41.089Z,15.90
2019-02-21T03:02:47.208Z,16.60
2019-02-21T03:03:53.392Z,17.10
2019-02-21T03:04:59.562Z,16.00
2019-02-21T03:06:05.854Z,15.75
2019-02-21T03:07:12.599Z,18.42
2019-02-21T03:08:18.808Z,16.62
2019-02-21T03:09:25.074Z,16.80
2019-02-21T03:10:31.314Z,16.35
2019-02-21T03:11:37.285Z,16.95
2019-02-21T03:12:43.508Z,16.95
2019-02-21T03:13:49.754Z,16.67
2019-02-21T03:14:55.856Z,16.60
2019-02-21T03:16:01.920Z,17.65
2019-02-21T03:17:08.067Z,17.45
2019-02-21T03:18:14.085Z,16.67
2019-02-21T03:19:20.348Z,16.70
2019-02-21T03:20:26.592Z,17.70
2019-02-21T03:21:32.833Z,16.20
2019-02-21T03:22:39.078Z,18.30
2019-02-21T03:23:45.327Z,17.23
2019-02-21T03:24:51.089Z,17.17
2019-02-21T03:25:57.276Z,16.60
2019-02-21T03:27:03.587Z,17.62
2019-02-21T03:28:09.637Z,17.73
2019-02-21T03:29:15.941Z,17.42
2019-02-21T03:30:22.212Z,18.45
2019-02-21T03:31:28.484Z,18.92
2019-02-21T03:32:34.646Z,18.32
2019-02-21T03:33:40.958Z,18.15
2019-02-21T03:34:47.096Z,18.15
2019-02-21T03:35:53.350Z,17.52
2019-02-21T03:36:59.448Z,18.60
2019-02-21T03:38:05.751Z,19.07
2019-02-21T03:39:11.957Z,18.62
2019-02-21T03:40:21.023Z,19.45
2019-02-21T03:41:27.225Z,18.67
2019-02-21T03:42:33.527Z,18.45
2019-02-21T03:43:40.298Z,18.23
2019-02-21T03:44:46.589Z,18.80
2019-02-21T03:45:52.864Z,18.60
2019-02-21T03:46:59.052Z,18.73
2019-02-21T03:48:05.146Z,19.27
2019-02-21T03:49:11.250Z,18.85
2019-02-21T03:50:17.015Z,18.12
2019-02-21T03:51:23.359Z,18.05
2019-02-21T03:52:29.604Z,18.65
2019-02-21T03:53:36.097Z,19.87
2019-02-21T03:54:42.246Z,19.32
2019-02-21T03:55:48.577Z,19.10
2019-02-21T03:56:54.721Z,19.75
2019-02-21T03:58:00.846Z,18.00
2019-02-21T03:59:07.222Z,19.45
2019-02-21T04:00:13.625Z,19.73
2019-02-21T04:01:19.936Z,18.95
2019-02-21T04:02:25.945Z,17.73
2019-02-21T04:03:33.469Z,18.12
2019-02-21T04:04:39.661Z,18.67
2019-02-21T04:05:46.100Z,19.55
2019-02-21T04:06:52.464Z,18.70
2019-02-21T04:07:58.752Z,18.30
2019-02-21T04:09:07.210Z,18.62
2019-02-21T04:10:13.368Z,19.35
2019-02-21T04:11:19.716Z,19.32
2019-02-21T04:12:25.994Z,19.37
2019-02-21T04:13:32.186Z,19.70
2019-02-21T04:14:39.538Z,18.75
2019-02-21T04:15:45.410Z,19.27
2019-02-21T04:16:51.557Z,18.75
2019-02-21T04:17:57.601Z,19.87
2019-02-21T04:19:03.742Z,19.37
2019-02-21T04:20:09.897Z,20.00
2019-02-21T04:21:16.066Z,21.00
2019-02-21T04:22:22.250Z,20.32
2019-02-21T04:23:28.715Z,20.88
2019-02-21T04:24:35.094Z,19.20
2019-02-21T04:25:41.316Z,19.73
2019-02-21T04:26:47.417Z,20.77
2019-02-21T04:27:53.226Z,20.35
2019-02-21T04:28:59.520Z,18.87
2019-02-21T04:30:05.998Z,19.98
2019-02-21T04:31:12.177Z,20.27
2019-02-21T04:32:18.311Z,20.30
2019-02-21T04:33:24.450Z,20.15
2019-02-21T04:34:30.473Z,21.30
2019-02-21T04:35:36.536Z,20.40
2019-02-21T04:36:42.655Z,20.65
2019-02-21T04:37:48.754Z,19.62
2019-02-21T04:38:54.893Z,21.33
2019-02-21T04:40:00.986Z,19.23
2019-02-21T04:41:07.684Z,20.57
2019-02-21T04:42:13.860Z,20.05
2019-02-21T04:43:19.946Z,19.82
2019-02-21T04:44:26.247Z,19.95
2019-02-21T04:45:33.632Z,20.77
2019-02-21T04:46:39.729Z,20.60
2019-02-21T04:47:45.795Z,20.12
2019-02-21T04:48:52.007Z,20.32
2019-02-21T04:49:58.452Z,20.77
2019-02-21T04:51:04.652Z,21.40
2019-02-21T04:52:10.877Z,21.62
2019-02-21T04:53:16.822Z,20.72
2019-02-21T04:54:22.593Z,21.62
2019-02-21T04:55:28.897Z,20.20
2019-02-21T04:56:35.175Z,20.62
2019-02-21T04:57:43.507Z,21.35
2019-02-21T04:58:49.820Z,21.55
2019-02-21T04:59:55.980Z,21.45
2019-02-21T05:01:02.349Z,20.97
2019-02-21T05:02:08.617Z,21.60
2019-02-21T05:03:14.861Z,20.77
2019-02-21T05:04:21.130Z,21.12
2019-02-21T05:05:27.226Z,21.42
2019-02-21T05:06:33.193Z,20.82
2019-02-21T05:07:39.481Z,22.07
2019-02-21T05:08:48.347Z,21.93
2019-02-21T05:09:57.865Z,22.07
2019-02-21T05:11:02.354Z,22.27
2019-02-21T05:12:08.656Z,22.22
2019-02-21T05:13:14.814Z,22.37
2019-02-21T05:14:21.153Z,22.40
2019-02-21T05:15:28.290Z,21.73
2019-02-21T05:16:34.525Z,21.65
2019-02-21T05:17:40.678Z,22.22
2019-02-21T05:18:46.433Z,22.48
2019-02-21T05:19:52.648Z,23.60
2019-02-21T05:20:59.183Z,22.62
2019-02-21T05:22:05.639Z,23.50
2019-02-21T05:23:12.788Z,22.10
2019-02-21T05:24:18.977Z,23.42
2019-02-21T05:25:25.224Z,23.05
2019-02-21T05:26:36.785Z,23.18
2019-02-21T05:27:48.364Z,23.65
2019-02-21T05:28:54.700Z,23.92
2019-02-21T05:30:01.003Z,23.52
2019-02-21T05:31:31.911Z,23.85
2019-02-21T05:33:03.038Z,23.20
2019-02-21T05:34:19.849Z,23.30
2019-02-21T05:35:44.834Z,22.22
2019-02-21T05:37:25.190Z,22.80
2019-02-21T05:38:50.283Z,23.02
2019-02-21T05:40:30.552Z,24.55
2019-02-21T05:41:55.745Z,23.27
2019-02-21T05:43:17.443Z,23.30
2019-02-21T05:44:33.631Z,24.07
2019-02-21T05:45:57.801Z,24.57
2019-02-21T05:47:17.266Z,24.40
2019-02-21T05:48:31.196Z,24.30
2019-02-21T05:50:15.763Z,24.55
2019-02-21T05:51:47.106Z,24.47
2019-02-21T05:53:21.202Z,23.42
2019-02-21T05:54:46.183Z,25.30
2019-02-21T05:56:08.316Z,24.75
2019-02-21T05:57:25.524Z,24.50
2019-02-21T05:58:36.844Z,25.27
2019-02-21T06:00:10.494Z,26.65
2019-02-21T06:01:51.254Z,23.52
2019-02-21T06:03:16.352Z,25.00
2019-02-21T06:04:39.261Z,24.20
2019-02-21T06:06:04.513Z,26.35
2019-02-21T06:07:32.480Z,25.77
2019-02-21T06:08:49.461Z,26.07
2019-02-21T06:10:05.562Z,25.15
2019-02-21T06:11:45.611Z,25.72
2019-02-21T06:13:18.836Z,24.50
2019-02-21T06:14:52.375Z,25.08
2019-02-21T06:16:25.872Z,24.70
2019-02-21T06:18:05.876Z,26.17
2019-02-21T06:19:39.895Z,25.88
2019-02-21T06:21:04.752Z,26.82
2019-02-21T06:22:32.863Z,27.17
2019-02-21T06:23:58.060Z,29.18
2019-02-21T06:25:09.540Z,25.72
2019-02-21T06:26:24.202Z,28.17
2019-02-21T06:27:38.078Z,27.75
2019-02-21T06:29:01.883Z,26.42
2019-02-21T06:30:15.829Z,26.65
2019-02-21T06:31:22.853Z,26.52
2019-02-21T06:32:28.987Z,27.02
2019-02-21T06:33:35.201Z,27.98
2019-02-21T06:34:41.290Z,27.30
2019-02-21T06:35:47.396Z,26.93
2019-02-21T06:36:53.657Z,28.25
2019-02-21T06:37:59.887Z,29.32
2019-02-21T06:39:08.383Z,28.70
2019-02-21T06:40:14.482Z,29.23
2019-02-21T06:41:20.638Z,27.27
2019-02-21T06:42:27.087Z,29.40
2019-02-21T06:43:33.211Z,29.18
2019-02-21T06:44:38.905Z,29.23
2019-02-21T06:45:45.214Z,30.02
2019-02-21T06:46:51.485Z,28.73
2019-02-21T06:47:57.626Z,31.85
2019-02-21T06:49:05.361Z,29.80
2019-02-21T06:50:11.177Z,28.95
2019-02-21T06:51:17.317Z,30.48
2019-02-21T06:52:23.634Z,30.62
2019-02-21T06:53:30.940Z,29.42
2019-02-21T06:54:37.092Z,29.42
2019-02-21T06:55:43.323Z,30.95
2019-02-21T06:56:49.438Z,31.07
2019-02-21T06:57:55.554Z,31.05
2019-02-21T06:59:01.798Z,30.85
2019-02-21T07:00:08.240Z,30.15
2019-02-21T07:01:25.468Z,31.15
2019-02-21T07:02:22.317Z,30.60
2019-02-21T07:03:29.065Z,30.90
2019-02-21T07:04:35.328Z,31.05
2019-02-21T07:05:41.589Z,29.85
2019-02-21T07:06:47.670Z,29.70
2019-02-21T07:07:53.906Z,30.15
2019-02-21T07:09:00.165Z,27.77
2019-02-21T07:10:06.616Z,30.65
2019-02-21T07:11:12.668Z,30.43
2019-02-21T07:12:18.754Z,30.00
2019-02-21T07:13:26.927Z,31.23
2019-02-21T07:14:34.395Z,30.50
2019-02-21T07:15:40.517Z,29.00
2019-02-21T07:16:46.652Z,28.87
2019-02-21T07:17:52.771Z,28.77
2019-02-21T07:18:58.996Z,30.15
2019-02-21T07:20:05.406Z,30.08
2019-02-21T07:21:13.317Z,29.30
2019-02-21T07:22:22.372Z,28.80
2019-02-21T07:23:27.732Z,28.25
2019-02-21T07:24:34.177Z,29.77
2019-02-21T07:25:44.068Z,27.87
2019-02-21T07:26:49.844Z,29.07
2019-02-21T07:27:58.268Z,28.10
2019-02-21T07:29:04.039Z,28.10
2019-02-21T07:30:19.574Z,29.95
2019-02-21T07:31:28.243Z,27.87
2019-02-21T07:32:25.704Z,26.50
2019-02-21T07:33:32.052Z,28.50
2019-02-21T07:34:38.191Z,26.65
2019-02-21T07:35:44.501Z,28.35
2019-02-21T07:36:50.857Z,27.60
2019-02-21T07:37:57.086Z,27.80
2019-02-21T07:39:16.444Z,29.10
2019-02-21T07:40:19.719Z,28.12
2019-02-21T07:41:19.733Z,27.20
2019-02-21T07:42:25.984Z,27.02
2019-02-21T07:43:32.119Z,25.90
2019-02-21T07:44:38.365Z,26.80
2019-02-21T07:45:44.686Z,27.15
2019-02-21T07:46:53.301Z,27.50
2019-02-21T07:47:58.759Z,26.45
2019-02-21T07:49:04.968Z,27.40
2019-02-21T07:50:11.913Z,28.10
2019-02-21T07:51:17.967Z,27.22
2019-02-21T07:52:26.092Z,27.77
2019-02-21T07:53:31.979Z,26.62
2019-02-21T07:54:38.092Z,26.15
2019-02-21T07:55:44.203Z,25.12
2019-02-21T07:56:50.447Z,25.45
2019-02-21T07:57:56.684Z,27.22
2019-02-21T07:59:02.907Z,25.80
2019-02-21T08:00:09.980Z,26.77
2019-02-21T08:01:17.462Z,27.32
2019-02-21T08:02:24.028Z,28.07
2019-02-21T08:03:35.853Z,29.05
2019-02-21T08:04:37.655Z,28.40
2019-02-21T08:05:44.085Z,27.90
2019-02-21T08:06:50.279Z,29.12
2019-02-21T08:07:56.600Z,29.95
2019-02-21T08:09:04.519Z,27.90
2019-02-21T08:10:11.139Z,29.55
2019-02-21T08:11:18.359Z,28.52
2019-02-21T08:12:24.565Z,27.87
2019-02-21T08:13:30.762Z,27.05
2019-02-21T08:14:36.528Z,26.07
2019-02-21T08:15:42.710Z,26.10
2019-02-21T08:16:48.874Z,27.25
2019-02-21T08:17:55.090Z,28.00
2019-02-21T08:19:01.196Z,26.82
2019-02-21T08:20:08.992Z,28.02
2019-02-21T08:21:15.204Z,27.15
2019-02-21T08:22:22.016Z,28.30
2019-02-21T08:23:28.278Z,28.23
2019-02-21T08:24:34.436Z,26.55
2019-02-21T08:25:40.588Z,26.93
2019-02-21T08:26:46.870Z,28.45
2019-02-21T08:27:52.704Z,28.75
2019-02-21T08:28:58.877Z,29.50
2019-02-21T08:30:05.475Z,28.73
2019-02-21T08:31:11.794Z,27.80
2019-02-21T08:32:20.455Z,28.27
2019-02-21T08:33:58.518Z,28.42
2019-02-21T08:35:01.747Z,29.87
2019-02-21T08:36:07.881Z,28.80
2019-02-21T08:37:14.065Z,30.30
2019-02-21T08:38:21.342Z,28.83
2019-02-21T08:39:27.535Z,28.80
2019-02-21T08:40:33.744Z,30.20
2019-02-21T08:41:40.159Z,31.57
2019-02-21T08:42:46.584Z,30.08
2019-02-21T08:43:52.920Z,29.80
2019-02-21T08:44:59.071Z,29.42
2019-02-21T08:46:05.234Z,30.35
2019-02-21T08:47:10.987Z,30.52
2019-02-21T08:48:17.215Z,30.85
2019-02-21T08:49:23.334Z,30.32
2019-02-21T08:50:29.529Z,29.07
2019-02-21T08:51:35.629Z,30.23
2019-02-21T08:52:41.733Z,31.82
2019-02-21T08:53:48.300Z,31.45
2019-02-21T08:55:00.063Z,31.57
2019-02-21T08:56:02.507Z,31.02
2019-02-21T08:57:08.722Z,30.60
2019-02-21T08:58:14.903Z,30.25
2019-02-21T08:59:20.693Z,30.57
2019-02-21T09:00:31.298Z,32.48
2019-02-21T09:01:34.805Z,31.60
2019-02-21T09:02:41.165Z,32.17
2019-02-21T09:03:47.246Z,33.25
2019-02-21T09:04:54.337Z,30.77
2019-02-21T09:06:00.519Z,31.00
2019-02-21T09:07:06.867Z,31.45
2019-02-21T09:08:13.105Z,31.00
2019-02-21T09:09:19.280Z,30.82
2019-02-21T09:10:27.570Z,32.58
2019-02-21T09:11:33.978Z,31.07
2019-02-21T09:12:40.115Z,31.45
2019-02-21T09:13:46.320Z,33.13
2019-02-21T09:14:52.604Z,32.00
2019-02-21T09:15:58.740Z,31.62
2019-02-21T09:17:04.847Z,31.68
2019-02-21T09:18:11.274Z,33.42
2019-02-21T09:19:17.326Z,31.90
2019-02-21T09:20:23.600Z,30.80
2019-02-21T09:21:30.080Z,30.77
2019-02-21T09:22:36.255Z,32.10
2019-02-21T09:23:42.407Z,30.25
2019-02-21T09:24:48.596Z,31.57
2019-02-21T09:25:54.637Z,30.50
2019-02-21T09:27:00.818Z,29.95
2019-02-21T09:28:06.903Z,31.07
2019-02-21T09:29:13.156Z,29.27
2019-02-21T09:30:20.306Z,30.85
2019-02-21T09:31:26.588Z,31.48
2019-02-21T09:32:32.945Z,30.88
2019-02-21T09:33:40.366Z,29.65
2019-02-21T09:34:50.241Z,31.80
2019-02-21T09:35:56.862Z,31.37
2019-02-21T09:37:05.359Z,31.93
2019-02-21T09:38:10.827Z,30.05
2019-02-21T09:39:16.927Z,31.23
2019-02-21T09:40:23.165Z,31.50
2019-02-21T09:41:29.547Z,31.40
2019-02-21T09:42:35.640Z,31.52
2019-02-21T09:43:41.665Z,30.68
2019-02-21T09:44:49.713Z,32.33
2019-02-21T09:45:55.404Z,29.67
2019-02-21T09:47:01.658Z,32.00
2019-02-21T09:48:07.517Z,31.70
2019-02-21T09:49:13.265Z,31.37
2019-02-21T09:50:19.673Z,30.32
2019-02-21T09:51:25.888Z,29.02
2019-02-21T09:52:32.221Z,30.17
2019-02-21T09:53:38.516Z,28.05
2019-02-21T09:54:47.394Z,31.02
2019-02-21T09:55:52.667Z,30.65
2019-02-21T09:56:58.785Z,30.05
2019-02-21T09:58:05.250Z,31.70
2019-02-21T09:59:11.318Z,29.87
2019-02-21T10:00:19.042Z,29.87
2019-02-21T10:01:25.374Z,29.70
2019-02-21T10:02:31.606Z,31.50
2019-02-21T10:03:37.955Z,30.77
2019-02-21T10:04:44.215Z,31.00
2019-02-21T10:05:50.449Z,29.75
2019-02-21T10:06:56.617Z,31.17
2019-02-21T10:08:02.669Z,30.43
2019-02-21T10:09:09.006Z,30.90
2019-02-21T10:10:16.754Z,30.62
2019-02-21T10:11:23.117Z,30.00
2019-02-21T10:12:29.206Z,31.12
2019-02-21T10:13:35.353Z,29.35
2019-02-21T10:14:41.712Z,30.95
2019-02-21T10:15:47.966Z,29.27
2019-02-21T10:16:54.513Z,31.33
2019-02-21T10:18:00.711Z,30.70
2019-02-21T10:19:07.247Z,30.02
2019-02-21T10:20:15.686Z,30.45
2019-02-21T10:21:21.943Z,28.23
2019-02-21T10:22:28.189Z,31.35
2019-02-21T10:23:34.299Z,31.33
2019-02-21T10:24:40.597Z,32.03
2019-02-21T10:25:46.337Z,31.02
2019-02-21T10:26:52.167Z,30.60
2019-02-21T10:27:59.193Z,30.23
2019-02-21T10:29:05.482Z,29.12
2019-02-21T10:30:13.499Z,30.05
2019-02-21T10:31:19.707Z,30.88
2019-02-21T10:32:26.130Z,29.52
2019-02-21T10:33:32.362Z,30.15
2019-02-21T10:34:43.012Z,30.68
2019-02-21T10:35:46.583Z,30.70
2019-02-21T10:36:52.644Z,27.37
2019-02-21T10:37:58.482Z,27.80
2019-02-21T10:39:05.653Z,29.95
2019-02-21T10:40:13.393Z,27.75
2019-02-21T10:41:19.799Z,27.80
2019-02-21T10:42:25.977Z,29.52
2019-02-21T10:43:32.287Z,27.55
2019-02-21T10:44:38.558Z,27.67
2019-02-21T10:45:47.941Z,29.30
2019-02-21T10:46:52.625Z,26.60
2019-02-21T10:47:58.791Z,26.73
2019-02-21T10:49:04.898Z,26.77
2019-02-21T10:50:14.098Z,27.85
2019-02-21T10:51:21.457Z,26.40
2019-02-21T10:52:27.613Z,27.13
2019-02-21T10:53:33.835Z,27.52
2019-02-21T10:54:40.035Z,25.82
2019-02-21T10:55:48.011Z,27.50
2019-02-21T10:56:54.149Z,28.47
2019-02-21T10:58:00.286Z,25.92
2019-02-21T10:59:06.558Z,26.05
2019-02-21T11:00:16.366Z,25.48
2019-02-21T11:01:22.118Z,26.52
2019-02-21T11:02:28.362Z,26.48
2019-02-21T11:03:34.531Z,26.97
2019-02-21T11:04:42.260Z,26.75
2019-02-21T11:05:48.496Z,26.90
2019-02-21T11:06:54.855Z,24.60
2019-02-21T11:08:00.846Z,26.45
2019-02-21T11:09:13.265Z,26.73
2019-02-21T11:10:22.016Z,25.43
2019-02-21T11:11:27.966Z,27.58
2019-02-21T11:12:35.531Z,25.92
2019-02-21T11:13:41.745Z,26.25
2019-02-21T11:14:47.980Z,25.77
2019-02-21T11:15:55.213Z,24.72
2019-02-21T11:17:01.556Z,24.57
2019-02-21T11:18:12.688Z,25.10
2019-02-21T11:19:18.895Z,23.70
2019-02-21T11:20:25.277Z,24.72
2019-02-21T11:21:31.448Z,23.73
2019-02-21T11:22:37.756Z,25.05
2019-02-21T11:23:43.612Z,25.10
2019-02-21T11:24:51.580Z,22.87
2019-02-21T11:25:57.733Z,25.02
2019-02-21T11:27:04.093Z,23.87
2019-02-21T11:28:10.377Z,24.45
2019-02-21T11:29:16.523Z,24.32
2019-02-21T11:30:22.975Z,24.57
2019-02-21T11:31:29.310Z,24.90
2019-02-21T11:32:35.517Z,24.52
2019-02-21T11:33:41.647Z,26.07
2019-02-21T11:34:49.104Z,24.15
2019-02-21T11:35:55.867Z,23.95
2019-02-21T11:37:02.294Z,23.75
2019-02-21T11:38:08.525Z,24.77
2019-02-21T11:39:14.746Z,25.05
2019-02-21T11:40:21.019Z,25.37
2019-02-21T11:41:26.970Z,25.30
2019-02-21T11:42:33.043Z,24.02
2019-02-21T11:43:39.282Z,24.65
2019-02-21T11:44:45.539Z,25.88
2019-02-21T11:45:55.274Z,24.60
2019-02-21T11:46:59.768Z,25.60
2019-02-21T11:48:09.201Z,26.50
2019-02-21T11:49:14.704Z,25.12
2019-02-21T11:50:20.902Z,24.25
2019-02-21T11:51:27.210Z,24.18
2019-02-21T11:52:33.467Z,24.10
2019-02-21T11:53:39.685Z,24.55
2019-02-21T11:54:45.845Z,25.08
2019-02-21T11:55:51.971Z,25.15
2019-02-21T11:56:58.186Z,25.70
2019-02-21T11:58:04.425Z,26.45
2019-02-21T11:59:10.587Z,27.37
2019-02-21T12:00:21.793Z,26.40
2019-02-21T12:01:28.081Z,26.23
2019-02-21T12:02:38.815Z,26.77
2019-02-21T12:03:42.045Z,24.98
2019-02-21T12:04:48.278Z,25.25
2019-02-21T12:05:54.460Z,26.68
2019-02-21T12:07:00.803Z,27.10
2019-02-21T12:08:07.028Z,26.25
2019-02-21T12:09:13.413Z,26.68
2019-02-21T12:10:19.888Z,27.35
2019-02-21T12:11:26.202Z,24.50
2019-02-21T12:12:31.985Z,26.68
2019-02-21T12:13:38.142Z,26.50
2019-02-21T12:14:44.430Z,25.92
2019-02-21T12:15:50.538Z,25.88
2019-02-21T12:16:56.756Z,24.45
2019-02-21T12:18:02.978Z,24.75
2019-02-21T12:19:09.365Z,23.02
2019-02-21T12:20:16.049Z,25.92
2019-02-21T12:21:22.214Z,24.45
2019-02-21T12:22:28.516Z,24.10
2019-02-21T12:23:34.672Z,24.87
2019-02-21T12:24:40.596Z,26.30
2019-02-21T12:25:46.327Z,24.82
2019-02-21T12:26:52.612Z,23.73
2019-02-21T12:27:58.918Z,24.43
2019-02-21T12:29:05.144Z,23.05
2019-02-21T12:30:13.352Z,24.18
2019-02-21T12:31:20.430Z,24.27
2019-02-21T12:32:27.723Z,24.10
2019-02-21T12:33:33.983Z,23.73
2019-02-21T12:34:40.225Z,22.27
2019-02-21T12:35:46.265Z,24.12
2019-02-21T12:36:52.325Z,23.80
2019-02-21T12:37:58.537Z,23.27
2019-02-21T12:39:06.214Z,23.70
2019-02-21T12:40:16.398Z,24.87
2019-02-21T12:41:22.534Z,24.47
2019-02-21T12:42:28.895Z,25.90
2019-02-21T12:43:35.293Z,24.55
2019-02-21T12:44:41.438Z,24.45
2019-02-21T12:45:47.512Z,25.05
2019-02-21T12:46:54.751Z,24.92
2019-02-21T12:48:01.561Z,23.80
2019-02-21T12:49:10.575Z,25.00
2019-02-21T12:50:15.248Z,24.67
2019-02-21T12:51:21.400Z,24.18
2019-02-21T12:52:27.554Z,22.65
2019-02-21T12:53:34.297Z,21.82
2019-02-21T12:54:40.506Z,22.22
2019-02-21T12:55:46.760Z,21.75
2019-02-21T12:56:52.969Z,22.52
2019-02-21T12:57:59.133Z,23.02
2019-02-21T12:59:05.345Z,22.22
2019-02-21T13:00:16.565Z,21.97
2019-02-21T13:01:22.315Z,21.97
2019-02-21T13:02:28.636Z,23.05
2019-02-21T13:03:35.044Z,21.40
2019-02-21T13:04:41.344Z,22.58
2019-02-21T13:05:47.407Z,21.23
2019-02-21T13:06:53.709Z,22.98
2019-02-21T13:07:59.819Z,20.02
2019-02-21T13:09:07.366Z,18.77
2019-02-21T13:10:15.406Z,18.98
2019-02-21T13:11:21.525Z,17.25
2019-02-21T13:12:27.817Z,16.57
2019-02-21T13:13:33.921Z,15.98
2019-02-21T13:14:40.394Z,14.10
2019-02-21T13:15:46.496Z,15.08
2019-02-21T13:16:52.765Z,11.35
2019-02-21T13:17:59.093Z,13.68
2019-02-21T13:19:05.278Z,13.15
2019-02-21T13:20:12.230Z,14.20
2019-02-21T13:21:18.416Z,14.38
2019-02-21T13:22:24.748Z,14.80
2019-02-21T13:23:31.186Z,15.05
2019-02-21T13:24:37.380Z,15.00
2019-02-21T13:25:43.306Z,15.85
2019-02-21T13:26:49.397Z,16.05
2019-02-21T13:27:55.509Z,16.57
2019-02-21T13:29:01.674Z,17.05
2019-02-21T13:30:09.849Z,17.00
2019-02-21T13:31:16.017Z,16.80
2019-02-21T13:32:22.170Z,15.53
2019-02-21T13:33:28.283Z,15.78
2019-02-21T13:34:34.622Z,16.97
2019-02-21T13:35:51.833Z,15.13
2019-02-21T13:36:48.894Z,14.87
2019-02-21T13:37:54.868Z,15.03
2019-02-21T13:39:01.112Z,15.43
2019-02-21T13:40:09.520Z,15.70
2019-02-21T13:41:15.605Z,15.60
2019-02-21T13:42:21.767Z,14.65
2019-02-21T13:43:28.917Z,15.68
2019-02-21T13:44:35.212Z,14.85
2019-02-21T13:45:41.329Z,14.10
2019-02-21T13:46:47.609Z,15.28
2019-02-21T13:47:53.794Z,15.00
2019-02-21T13:49:00.014Z,14.45
2019-02-21T13:50:07.870Z,14.63
2019-02-21T13:51:13.988Z,14.47
2019-02-21T13:52:20.238Z,13.58
2019-02-21T13:53:26.363Z,14.10
2019-02-21T13:54:32.578Z,13.35
2019-02-21T13:55:39.822Z,13.15
2019-02-21T13:56:46.346Z,13.38
2019-02-21T13:57:52.456Z,13.15
2019-02-21T13:58:58.598Z,14.13
2019-02-21T14:00:05.233Z,14.47
2019-02-21T14:01:14.351Z,14.28
2019-02-21T14:02:19.619Z,14.68
2019-02-21T14:03:25.468Z,13.13
2019-02-21T14:04:31.688Z,14.38
2019-02-21T14:05:38.025Z,14.83
2019-02-21T14:06:44.457Z,15.08
2019-02-21T14:07:50.528Z,13.65
2019-02-21T14:08:56.805Z,14.10
2019-02-21T14:10:02.963Z,13.72
2019-02-21T14:11:09.143Z,13.98
2019-02-21T14:12:15.251Z,14.35
2019-02-21T14:13:22.510Z,14.20
2019-02-21T14:14:30.867Z,14.30
2019-02-21T14:15:36.292Z,14.50
2019-02-21T14:16:46.698Z,15.43
2019-02-21T14:17:51.025Z,13.43
2019-02-21T14:18:57.336Z,13.50
2019-02-21T14:20:03.565Z,13.55
2019-02-21T14:21:09.737Z,13.83
2019-02-21T14:22:15.969Z,12.53
2019-02-21T14:23:22.243Z,12.78
2019-02-21T14:24:36.347Z,13.05
2019-02-21T14:25:40.919Z,13.38
2019-02-21T14:26:43.970Z,12.90
2019-02-21T14:27:49.824Z,13.03
2019-02-21T14:28:57.123Z,13.20
2019-02-21T14:30:03.430Z,13.53